createdAt,value
2022-09-13T00:01:50.363Z,33.10
2022-09-13T00:06:52.699Z,35.73
2022-09-13T00:11:55.658Z,30.87
2022-09-13T00:16:58.042Z,26.90
2022-09-13T00:22:00.474Z,27.47
2022-09-13T00:27:02.977Z,31.93
2022-09-13T00:32:05.587Z,32.17
2022-09-13T00:37:09.049Z,26.87
2022-09-13T00:42:13.172Z,27.50
2022-09-13T00:47:38.455Z,33.60
2022-09-13T00:52:46.588Z,31.23
2022-09-13T00:57:50.214Z,29.60
2022-09-13T01:02:57.293Z,29.97
2022-09-13T01:08:01.055Z,31.90
2022-09-13T01:13:15.063Z,30.03
2022-09-13T01:18:17.707Z,32.60
2022-09-13T01:24:02.617Z,28.97
2022-09-13T01:29:19.974Z,29.93
2022-09-13T01:34:40.862Z,26.57
2022-09-13T01:39:50.814Z,28.00
2022-09-13T01:45:30.871Z,28.33
2022-09-13T01:50:39.163Z,27.53
2022-09-13T01:56:22.635Z,24.00
2022-09-13T02:01:31.548Z,25.63
2022-09-13T02:06:49.026Z,25.50
2022-09-13T02:11:59.947Z,26.47
2022-09-13T02:17:08.875Z,28.90
2022-09-13T02:22:15.529Z,26.10
2022-09-13T02:27:24.660Z,26.47
2022-09-13T02:32:36.295Z,24.53
2022-09-13T02:37:40.468Z,26.53
2022-09-13T02:42:53.072Z,26.17
2022-09-13T02:48:05.772Z,25.97
2022-09-13T02:53:27.916Z,23.17
2022-09-13T02:58:53.098Z,23.93
2022-09-13T03:03:55.520Z,29.97
2022-09-13T03:09:03.831Z,22.70
2022-09-13T03:14:21.179Z,22.10
2022-09-13T03:19:39.986Z,18.53
2022-09-13T03:25:00.953Z,19.30
2022-09-13T03:30:15.969Z,20.63
2022-09-13T03:35:30.336Z,23.80
2022-09-13T03:40:32.671Z,18.67
2022-09-13T03:45:50.096Z,16.63
2022-09-13T03:50:54.277Z,18.43
2022-09-13T03:55:56.850Z,19.27
2022-09-13T04:00:59.343Z,21.10
2022-09-13T04:06:01.837Z,14.80
2022-09-13T04:11:04.271Z,17.10
2022-09-13T04:16:07.483Z,15.57
2022-09-13T04:21:10.380Z,16.57
2022-09-13T04:26:12.834Z,17.90
2022-09-13T04:31:15.270Z,14.47
2022-09-13T04:36:17.802Z,24.33
2022-09-13T04:41:20.208Z,15.63
2022-09-13T04:46:22.555Z,21.27
2022-09-13T04:51:25.244Z,15.17
2022-09-13T04:56:27.950Z,18.33
2022-09-13T05:01:30.589Z,15.37
2022-09-13T05:06:33.001Z,18.83
2022-09-13T05:11:35.409Z,19.87
2022-09-13T05:16:38.162Z,23.67
2022-09-13T05:21:40.707Z,19.53
2022-09-13T05:26:43.203Z,22.20
2022-09-13T05:31:45.730Z,20.40
2022-09-13T05:36:54.049Z,19.37
2022-09-13T05:41:56.809Z,17.53
2022-09-13T05:46:59.116Z,20.17
2022-09-13T05:52:01.614Z,16.77
2022-09-13T05:57:04.358Z,21.60
2022-09-13T06:02:10.145Z,17.80
2022-09-13T06:07:12.694Z,20.33
2022-09-13T06:12:15.008Z,19.23
2022-09-13T06:17:17.406Z,20.70
2022-09-13T06:22:20.044Z,22.60
2022-09-13T06:27:22.366Z,17.87
2022-09-13T06:32:24.696Z,18.20
2022-09-13T06:37:33.082Z,19.73
2022-09-13T06:42:36.785Z,18.17
2022-09-13T06:47:39.118Z,19.57
2022-09-13T06:52:41.476Z,19.07
2022-09-13T06:57:43.850Z,20.07
2022-09-13T07:02:51.436Z,16.60
2022-09-13T07:07:53.736Z,22.80
2022-09-13T07:12:56.044Z,17.77
2022-09-13T07:17:58.525Z,17.17
2022-09-13T07:23:01.243Z,17.47
2022-09-13T07:28:03.731Z,19.23
2022-09-13T07:33:06.175Z,15.83
2022-09-13T07:38:08.528Z,17.13
2022-09-13T07:43:10.880Z,16.87
2022-09-13T07:48:13.329Z,17.07
2022-09-13T07:53:15.776Z,19.77
2022-09-13T07:58:18.942Z,15.20
2022-09-13T08:03:21.298Z,15.17
2022-09-13T08:08:23.654Z,13.20
2022-09-13T08:13:28.952Z,12.30
2022-09-13T08:18:31.917Z,9.67
2022-09-13T08:23:34.600Z,12.67
2022-09-13T08:28:41.268Z,11.57
2022-09-13T08:33:51.103Z,12.43
2022-09-13T08:38:59.690Z,12.73
2022-09-13T08:44:29.726Z,11.60
2022-09-13T08:49:40.365Z,10.20
2022-09-13T08:54:43.865Z,11.93
2022-09-13T09:00:20.515Z,11.10
2022-09-13T09:05:30.608Z,12.27
2022-09-13T09:10:39.550Z,13.43
2022-09-13T09:16:01.440Z,13.23
2022-09-13T09:21:04.614Z,12.67
2022-09-13T09:26:17.243Z,10.90
2022-09-13T09:31:22.518Z,18.20
2022-09-13T09:36:43.412Z,13.10
2022-09-13T09:41:46.146Z,12.03
2022-09-13T09:46:52.099Z,13.60
2022-09-13T09:51:56.591Z,14.13
2022-09-13T09:56:58.976Z,13.63
2022-09-13T10:02:11.910Z,11.20
2022-09-13T10:07:41.088Z,16.83
2022-09-13T10:12:43.649Z,13.83
2022-09-13T10:18:21.178Z,13.93
2022-09-13T10:23:31.141Z,13.20
2022-09-13T10:28:37.200Z,13.13
2022-09-13T10:34:00.814Z,11.50
2022-09-13T10:39:07.042Z,12.20
2022-09-13T10:44:45.370Z,11.38
2022-09-13T10:49:53.458Z,15.05
2022-09-13T10:54:56.207Z,15.15
2022-09-13T11:00:01.036Z,13.98
2022-09-13T11:05:30.701Z,10.95
2022-09-13T11:10:44.885Z,14.48
2022-09-13T11:15:53.250Z,14.07
2022-09-13T11:21:18.375Z,10.40
2022-09-13T11:26:51.355Z,9.70
2022-09-13T11:32:39.242Z,9.73
2022-09-13T11:38:19.150Z,10.70
2022-09-13T11:43:40.016Z,9.50
2022-09-13T11:49:04.970Z,11.80
2022-09-13T11:54:16.243Z,14.13
2022-09-13T12:00:12.444Z,12.98
2022-09-13T12:05:24.038Z,21.85
2022-09-13T12:10:56.203Z,19.27
2022-09-13T12:16:07.054Z,18.10
2022-09-13T12:21:15.571Z,13.25
2022-09-13T12:26:26.797Z,16.20
2022-09-13T12:31:32.470Z,17.23
2022-09-13T12:36:56.634Z,13.70
2022-09-13T12:42:26.583Z,17.48
2022-09-13T12:47:40.885Z,11.57
2022-09-13T12:53:19.449Z,12.30
2022-09-13T12:58:43.582Z,14.68
2022-09-13T13:03:51.579Z,17.65
2022-09-13T13:09:00.476Z,13.23
2022-09-13T13:14:09.456Z,15.30
2022-09-13T13:19:37.047Z,14.82
2022-09-13T13:24:48.403Z,16.80
2022-09-13T13:30:29.239Z,13.52
2022-09-13T13:35:32.526Z,14.65
2022-09-13T13:40:36.571Z,11.63
2022-09-13T13:45:56.042Z,13.30
2022-09-13T13:51:37.192Z,16.23
2022-09-13T13:56:48.931Z,16.48
2022-09-13T14:01:59.553Z,15.75
2022-09-13T14:07:20.290Z,9.88
2022-09-13T14:13:03.675Z,12.60
2022-09-13T14:18:23.264Z,11.18
2022-09-13T14:23:25.692Z,9.80
2022-09-13T14:28:28.466Z,10.57
2022-09-13T14:33:35.023Z,10.10
2022-09-13T14:38:37.787Z,12.00
2022-09-13T14:43:41.256Z,12.20
2022-09-13T14:49:01.317Z,14.05
2022-09-13T14:54:43.928Z,13.55
2022-09-13T14:59:50.491Z,10.68
2022-09-13T15:04:56.487Z,12.23
2022-09-13T15:10:09.567Z,14.60
2022-09-13T15:15:26.167Z,15.00
2022-09-13T15:21:03.830Z,11.75
2022-09-13T15:26:10.547Z,16.58
2022-09-13T15:31:22.371Z,16.05
2022-09-13T15:36:28.976Z,20.52
2022-09-13T15:41:33.740Z,22.65
2022-09-13T15:46:46.741Z,20.00
2022-09-13T15:51:54.950Z,17.27
2022-09-13T15:56:59.095Z,21.38
2022-09-13T16:02:09.095Z,17.98
2022-09-13T16:07:11.458Z,22.40
2022-09-13T16:12:14.476Z,35.10
2022-09-13T16:17:26.617Z,23.80
2022-09-13T16:22:29.048Z,22.80
2022-09-13T16:27:35.462Z,23.03
2022-09-13T16:32:37.807Z,22.93
2022-09-13T16:37:41.254Z,23.07
2022-09-13T16:42:43.613Z,30.03
2022-09-13T16:47:46.305Z,30.27
2022-09-13T16:52:48.632Z,37.17
2022-09-13T16:57:52.608Z,41.30
2022-09-13T17:02:56.702Z,32.50
2022-09-13T17:07:59.281Z,30.13
2022-09-13T17:13:01.843Z,23.67
2022-09-13T17:18:04.468Z,27.37
2022-09-13T17:23:06.841Z,21.53
2022-09-13T17:28:09.311Z,25.03
2022-09-13T17:33:12.404Z,26.17
2022-09-13T17:38:15.210Z,29.83
2022-09-13T17:43:17.587Z,28.17
2022-09-13T17:48:20.493Z,42.87
2022-09-13T17:53:22.847Z,44.87
2022-09-13T17:58:27.185Z,73.07
2022-09-13T18:03:30.951Z,231.83
2022-09-13T18:08:34.976Z,96.70
2022-09-13T18:13:38.204Z,144.07
2022-09-13T18:18:44.070Z,89.10
2022-09-13T18:23:52.217Z,80.43
2022-09-13T18:29:01.872Z,120.23
2022-09-13T18:34:06.956Z,122.00
2022-09-13T18:39:19.359Z,103.53
2022-09-13T18:44:21.751Z,60.93
2022-09-13T18:49:24.482Z,50.67
2022-09-13T18:54:26.871Z,37.63
2022-09-13T18:59:32.091Z,46.83
2022-09-13T19:04:37.057Z,52.23
2022-09-13T19:09:39.514Z,50.23
2022-09-13T19:14:41.968Z,42.43
2022-09-13T19:19:44.395Z,38.63
2022-09-13T19:24:48.459Z,37.77
2022-09-13T19:29:50.978Z,33.63
2022-09-13T19:34:53.353Z,31.60
2022-09-13T19:39:56.044Z,32.90
2022-09-13T19:44:58.411Z,39.83
2022-09-13T19:50:01.323Z,38.03
2022-09-13T19:55:04.445Z,39.57
2022-09-13T20:00:07.587Z,39.57
2022-09-13T20:05:10.021Z,44.07
2022-09-13T20:10:12.410Z,59.63
2022-09-13T20:15:14.854Z,41.40
2022-09-13T20:20:17.686Z,47.87
2022-09-13T20:25:20.139Z,42.40
2022-09-13T20:30:22.479Z,36.90
2022-09-13T20:35:24.983Z,42.93
2022-09-13T20:40:27.624Z,43.53
2022-09-13T20:45:30.138Z,39.53
2022-09-13T20:50:35.769Z,38.53
2022-09-13T20:55:38.115Z,32.90
2022-09-13T21:00:40.464Z,31.10
2022-09-13T21:05:43.378Z,31.80
2022-09-13T21:10:56.582Z,30.83
2022-09-13T21:16:23.381Z,26.23
2022-09-13T21:21:30.109Z,24.80
2022-09-13T21:26:33.224Z,26.80
2022-09-13T21:31:36.427Z,24.70
2022-09-13T21:36:39.292Z,28.33
2022-09-13T21:41:42.017Z,31.70
2022-09-13T21:46:46.461Z,29.50
2022-09-13T21:51:52.735Z,34.00
2022-09-13T21:56:55.390Z,33.67
2022-09-13T22:01:58.296Z,32.70
2022-09-13T22:07:00.755Z,33.00
2022-09-13T22:12:03.373Z,32.30
2022-09-13T22:17:05.862Z,24.80
2022-09-13T22:22:08.270Z,23.67
2022-09-13T22:27:10.654Z,22.40
2022-09-13T22:32:13.173Z,23.73
2022-09-13T22:37:15.745Z,22.87
2022-09-13T22:42:18.069Z,26.97
2022-09-13T22:47:20.545Z,29.90
2022-09-13T22:52:23.282Z,27.40
2022-09-13T22:57:25.693Z,25.20
2022-09-13T23:02:28.042Z,34.50
2022-09-13T23:07:30.508Z,29.70
2022-09-13T23:12:32.845Z,29.40
2022-09-13T23:17:35.219Z,32.07
2022-09-13T23:22:37.771Z,27.60
2022-09-13T23:27:40.238Z,26.63
2022-09-13T23:32:42.584Z,23.87
2022-09-13T23:37:48.627Z,22.80
2022-09-13T23:42:51.023Z,22.40
2022-09-13T23:47:53.423Z,25.73
2022-09-13T23:52:56.026Z,25.17
2022-09-13T23:57:58.567Z,21.93
